Time;durP1;ratioP1;P1;durP2;ratioP2;P2;SDS_P1;SDS_P2;PMS_P1;PMS_P2;Temp;Humidity;BMP_temperature;BMP_pressure;BME280_temperature;BME280_humidity;BME280_pressure;Samples;Min_cycle;Max_cycle;Signal;HPM_P1;HPM_P2
2022/06/17 00:02:00;;;;;;;9.60;5.15;;;;;;;19.79;100.00;96780.75;5013738;28;20199;-83
2022/06/17 00:04:27;;;;;;;9.73;4.72;;;;;;;19.77;100.00;96781.00;5027297;28;20203;-82
2022/06/17 00:06:58;;;;;;;5.90;5.13;;;;;;;19.74;100.00;96778.00;5006909;28;20246;-82
2022/06/17 00:09:29;;;;;;;6.75;4.72;;;;;;;19.70;100.00;96777.75;5008548;28;20199;-82
2022/06/17 00:11:56;;;;;;;6.97;5.00;;;;;;;19.81;99.37;96789.50;5014880;28;20219;-83
2022/06/17 00:14:28;;;;;;;6.60;4.43;;;;;;;19.76;98.77;96775.81;5009527;28;20214;-83
2022/06/17 00:16:55;;;;;;;5.45;4.45;;;;;;;19.82;98.88;96780.19;5001297;28;20230;-82
2022/06/17 00:19:22;;;;;;;7.43;5.13;;;;;;;19.77;99.80;96771.97;5012599;28;20195;-83
2022/06/17 00:21:52;;;;;;;7.40;5.20;;;;;;;19.64;100.00;96762.44;5022115;28;20234;-82
2022/06/17 00:24:24;;;;;;;6.30;4.65;;;;;;;19.62;100.00;96770.91;5024567;28;20213;-83
2022/06/17 00:26:53;;;;;;;5.93;5.32;;;;;;;19.60;100.00;96773.09;5023294;28;20217;-82
2022/06/17 00:29:24;;;;;;;10.70;4.93;;;;;;;19.58;100.00;96779.94;5004518;28;20203;-82
2022/06/17 00:31:51;;;;;;;7.70;5.30;;;;;;;19.54;100.00;96782.44;5025497;28;20267;-82
2022/06/17 00:34:18;;;;;;;5.40;4.40;;;;;;;19.54;100.00;96782.44;5010873;28;20200;-83
2022/06/17 00:36:46;;;;;;;7.97;4.78;;;;;;;19.48;100.00;96766.31;5007253;28;20211;-82
2022/06/17 00:39:17;;;;;;;8.02;5.00;;;;;;;19.44;100.00;96774.19;5006897;28;20206;-82
2022/06/17 00:41:49;;;;;;;9.77;5.05;;;;;;;19.41;100.00;96776.66;5007156;28;20230;-82
2022/06/17 00:44:27;;;;;;;14.63;5.68;;;;;;;19.36;100.00;96765.72;5003859;28;20527;-83
2022/06/17 00:47:02;;;;;;;7.72;4.82;;;;;;;19.32;100.00;96759.97;5008733;28;20207;-82
2022/06/17 00:49:40;;;;;;;8.70;5.40;;;;;;;19.15;100.00;96762.16;4998812;28;20325;-82
2022/06/17 00:52:15;;;;;;;6.97;5.13;;;;;;;19.06;100.00;96761.06;5012419;28;20215;-82
2022/06/17 00:54:46;;;;;;;7.67;5.50;;;;;;;19.02;100.00;96770.94;5011618;28;20249;-82
2022/06/17 00:57:26;;;;;;;7.97;5.28;;;;;;;19.04;100.00;96768.75;5025106;28;20217;-83
2022/06/17 01:00:16;;;;;;;12.63;5.80;;;;;;;19.06;100.00;96767.38;5017889;28;20219;-82
2022/06/17 01:02:47;;;;;;;7.18;4.43;;;;;;;19.07;100.00;96766.28;5011838;28;20199;-82
2022/06/17 01:05:17;;;;;;;8.27;5.80;;;;;;;19.03;100.00;96778.88;5011425;28;20293;-83
2022/06/17 01:07:50;;;;;;;7.60;5.00;;;;;;;19.00;100.00;96779.44;5012481;28;20248;-82
2022/06/17 01:10:19;;;;;;;6.70;4.77;;;;;;;19.01;100.00;96780.25;5007602;28;20217;-83
2022/06/17 01:12:54;;;;;;;6.78;4.53;;;;;;;18.97;100.00;96788.16;5009642;28;20253;-83
2022/06/17 01:15:24;;;;;;;5.95;4.72;;;;;;;18.97;100.00;96788.16;5007652;28;20214;-82
2022/06/17 01:17:55;;;;;;;6.25;4.85;;;;;;;18.99;100.00;96798.84;5009559;28;20199;-83
2022/06/17 01:20:24;;;;;;;6.50;4.80;;;;;;;19.03;100.00;96799.97;5005455;28;20207;-83
2022/06/17 01:22:55;;;;;;;6.72;5.20;;;;;;;18.98;100.00;96786.25;5014261;28;20226;-82
2022/06/17 01:25:25;;;;;;;8.82;5.05;;;;;;;18.98;100.00;96792.56;5015105;28;20206;-82
2022/06/17 01:27:55;;;;;;;5.85;4.75;;;;;;;18.88;100.00;96789.84;5020429;28;20219;-83
2022/06/17 01:30:24;;;;;;;6.80;4.95;;;;;;;18.86;100.00;96812.00;5006924;28;20207;-83
2022/06/17 01:32:56;;;;;;;7.78;4.95;;;;;;;18.84;100.00;96807.88;5010384;28;20218;-83
2022/06/17 01:35:27;;;;;;;6.97;5.38;;;;;;;18.84;100.00;96803.22;4995678;28;20225;-82
2022/06/17 01:37:57;;;;;;;6.88;5.13;;;;;;;18.84;100.00;96807.88;5009403;28;20207;-82
2022/06/17 01:40:28;;;;;;;7.15;4.93;;;;;;;18.79;100.00;96800.50;5025868;28;20203;-82
2022/06/17 01:42:57;;;;;;;6.47;5.30;;;;;;;18.80;100.00;96806.75;5001921;28;20261;-83
2022/06/17 01:45:25;;;;;;;5.65;4.95;;;;;;;18.76;100.00;96806.50;5007695;28;20325;-82
2022/06/17 01:47:52;;;;;;;5.40;4.90;;;;;;;18.69;100.00;96800.47;5010807;28;20223;-82
2022/06/17 01:50:22;;;;;;;6.47;5.22;;;;;;;18.69;100.00;96810.59;5011633;28;20254;-82
2022/06/17 01:52:58;;;;;;;8.18;5.05;;;;;;;18.61;100.00;96803.72;5015378;28;20202;-82
2022/06/17 01:55:30;;;;;;;7.70;5.38;;;;;;;18.58;100.00;96800.72;5015034;28;20237;-84
2022/06/17 01:58:05;;;;;;;7.72;5.22;;;;;;;18.61;100.00;96801.00;5007700;28;20191;-84
2022/06/17 02:00:36;;;;;;;7.53;4.95;;;;;;;18.64;100.00;96808.66;5004266;28;20214;-84
2022/06/17 02:03:10;;;;;;;7.10;5.47;;;;;;;18.61;100.00;96803.72;5001801;28;20209;-83
2022/06/17 02:05:39;;;;;;;8.18;5.13;;;;;;;18.55;100.00;96804.75;5011022;28;20211;-84
2022/06/17 02:08:09;;;;;;;7.03;4.60;;;;;;;18.46;100.00;96800.91;4994882;28;20302;-84
2022/06/17 02:10:38;;;;;;;5.85;4.72;;;;;;;18.51;100.00;96811.88;5021915;28;20210;-84
2022/06/17 02:13:07;;;;;;;7.38;5.53;;;;;;;18.42;100.00;96821.69;5013714;28;20203;-83
2022/06/17 02:15:55;;;;;;;6.53;5.38;;;;;;;18.30;100.00;96808.25;5010655;28;20227;-84
2022/06/17 02:18:48;;;;;;;7.18;5.20;;;;;;;18.35;100.00;96823.84;4992388;28;20223;-83
2022/06/17 02:21:23;;;;;;;6.10;5.28;;;;;;;18.32;100.00;96816.19;5006967;28;20218;-83
2022/06/17 02:23:53;;;;;;;7.70;5.13;;;;;;;18.26;100.00;96800.84;5009939;28;20198;-83
2022/06/17 02:26:22;;;;;;;7.10;5.23;;;;;;;18.25;100.00;96815.63;5007862;28;20237;-83
2022/06/17 02:28:50;;;;;;;5.47;4.97;;;;;;;18.22;100.00;96821.59;5008960;28;20230;-84
2022/06/17 02:31:21;;;;;;;7.77;5.27;;;;;;;18.21;100.00;96814.50;5008517;28;20213;-84
2022/06/17 02:33:51;;;;;;;6.87;5.40;;;;;;;18.15;100.00;96805.47;5008186;28;20226;-84
2022/06/17 02:36:25;;;;;;;7.10;5.33;;;;;;;18.11;100.00;96813.38;5008439;28;20217;-83
2022/06/17 02:38:54;;;;;;;6.23;5.03;;;;;;;18.07;100.00;96804.06;5025360;28;20210;-84
2022/06/17 02:41:21;;;;;;;6.97;5.50;;;;;;;18.09;100.00;96807.34;5006709;28;20209;-84
2022/06/17 02:43:57;;;;;;;8.00;5.60;;;;;;;18.07;100.00;96804.06;5007552;28;20206;-84
2022/06/17 02:46:29;;;;;;;6.47;5.20;;;;;;;18.12;100.00;96812.28;5007734;28;20211;-84
2022/06/17 02:49:00;;;;;;;5.83;5.23;;;;;;;18.07;100.00;96804.06;5003760;28;20230;-84
2022/06/17 02:51:32;;;;;;;8.47;5.50;;;;;;;18.09;100.00;96803.81;5006232;28;20210;-84
2022/06/17 02:54:03;;;;;;;8.90;5.20;;;;;;;17.99;100.00;96796.38;5008754;28;20253;-83
2022/06/17 02:56:34;;;;;;;6.27;5.47;;;;;;;17.97;100.00;96805.91;5006781;28;20237;-84
2022/06/17 02:59:07;;;;;;;5.93;5.30;;;;;;;17.90;100.00;96792.50;5009128;28;20203;-84
2022/06/17 03:01:39;;;;;;;7.20;5.17;;;;;;;17.93;100.00;96800.19;5015875;28;20206;-84
2022/06/17 03:04:18;;;;;;;7.30;4.93;;;;;;;17.99;100.00;96801.84;5008565;28;20298;-84
2022/06/17 03:06:47;;;;;;;5.20;4.53;;;;;;;18.02;100.00;96800.50;5013193;28;20265;-83
2022/06/17 03:09:20;;;;;;;9.13;5.30;;;;;;;18.09;100.00;96799.16;4998043;28;20219;-84
2022/06/17 03:11:51;;;;;;;7.27;5.57;;;;;;;18.21;100.00;96803.56;5013063;28;20214;-83
2022/06/17 03:14:19;;;;;;;12.23;5.97;;;;;;;18.22;100.00;96799.72;5015492;28;20203;-83
2022/06/17 03:16:51;;;;;;;7.37;5.50;;;;;;;18.24;100.00;96797.56;5009013;28;20238;-83
2022/06/17 03:19:18;;;;;;;9.93;5.33;;;;;;;18.28;100.00;96798.69;5010126;28;20261;-84
2022/06/17 03:21:46;;;;;;;7.50;5.20;;;;;;;18.21;100.00;96795.34;5016752;28;20210;-84
2022/06/17 03:24:22;;;;;;;8.53;5.43;;;;;;;18.18;100.00;96804.09;5000856;28;20238;-84
2022/06/17 03:26:55;;;;;;;8.57;5.57;;;;;;;18.12;100.00;96812.28;5012072;28;20206;-84
2022/06/17 03:29:25;;;;;;;8.90;5.90;;;;;;;17.99;100.00;96804.56;5009202;28;20265;-84
2022/06/17 03:31:58;;;;;;;6.37;5.37;;;;;;;17.93;100.00;96800.19;5015521;28;20211;-84
2022/06/17 03:34:33;;;;;;;6.00;5.33;;;;;;;17.91;100.00;96818.75;5002657;28;20213;-84
2022/06/17 03:37:07;;;;;;;10.63;5.60;;;;;;;17.87;100.00;96805.84;5008217;28;20230;-85
2022/06/17 03:39:39;;;;;;;7.77;5.33;;;;;;;17.94;100.00;96815.50;5002426;28;20233;-83
2022/06/17 03:42:13;;;;;;;5.27;4.77;;;;;;;17.96;100.00;96812.47;5026093;28;20214;-80
2022/06/17 03:44:45;;;;;;;5.83;5.23;;;;;;;17.94;100.00;96818.22;5009067;28;20229;-80
2022/06/17 03:47:18;;;;;;;6.03;5.17;;;;;;;17.99;100.00;96820.97;5011436;28;20216;-80
2022/06/17 03:49:53;;;;;;;6.73;4.87;;;;;;;18.00;100.00;96821.78;5008511;28;20330;-80
2022/06/17 03:52:29;;;;;;;9.10;5.37;;;;;;;17.97;100.00;96839.53;5011226;28;20202;-80
2022/06/17 03:55:13;;;;;;;8.63;5.30;;;;;;;17.92;100.00;96834.06;5010248;28;20211;-80
2022/06/17 03:57:44;;;;;;;9.73;5.50;;;;;;;17.90;100.00;96855.34;5007479;28;20211;-81
2022/06/17 04:00:19;;;;;;;8.57;5.30;;;;;;;17.85;100.00;96855.31;5023950;28;20214;-81
2022/06/17 04:02:51;;;;;;;6.63;5.40;;;;;;;17.79;100.00;96856.34;5028684;28;20293;-80
2022/06/17 04:05:21;;;;;;;8.07;5.30;;;;;;;17.73;100.00;96860.16;5011965;28;20207;-80
2022/06/17 04:07:49;;;;;;;8.00;5.67;;;;;;;17.76;100.00;96862.38;5008175;28;20234;-81
2022/06/17 04:10:22;;;;;;;9.83;5.83;;;;;;;17.75;100.00;96868.91;5007664;28;20235;-81
2022/06/17 04:12:53;;;;;;;8.67;6.13;;;;;;;17.70;100.00;96868.84;5000783;28;20207;-81
2022/06/17 04:15:42;;;;;;;9.70;6.30;;;;;;;17.69;100.00;96880.91;5008909;28;20230;-82
2022/06/17 04:18:10;;;;;;;5.77;5.17;;;;;;;17.71;100.00;96882.25;5011451;28;20214;-81
2022/06/17 04:20:44;;;;;;;6.07;5.50;;;;;;;17.75;100.00;96891.59;5019177;28;20290;-81
2022/06/17 04:23:15;;;;;;;6.20;5.30;;;;;;;17.72;100.00;96894.00;4997963;28;20208;-81
2022/06/17 04:25:59;;;;;;;7.23;5.50;;;;;;;17.71;100.00;96893.19;4999292;28;20215;-80
2022/06/17 04:28:31;;;;;;;6.33;5.40;;;;;;;17.72;100.00;96894.84;5004281;28;20353;-80
2022/06/17 04:31:01;;;;;;;9.03;5.90;;;;;;;17.67;100.00;96905.72;5010751;28;20306;-80
2022/06/17 04:33:35;;;;;;;7.83;5.30;;;;;;;17.57;100.00;96905.63;5009626;28;20281;-80
2022/06/17 04:36:05;;;;;;;6.43;5.40;;;;;;;17.55;100.00;96907.78;5011417;28;20207;-80
2022/06/17 04:38:46;;;;;;;8.17;6.50;;;;;;;17.52;100.00;96910.22;5009857;28;20203;-79
2022/06/17 04:41:31;;;;;;;10.23;6.00;;;;;;;17.50;100.00;96917.84;5019920;28;20244;-80
2022/06/17 04:44:07;;;;;;;7.10;6.40;;;;;;;17.47;100.00;96902.78;5010775;28;20206;-80
2022/06/17 04:46:38;;;;;;;8.73;6.60;;;;;;;17.54;100.00;96905.31;5008908;28;20207;-80
2022/06/17 04:49:07;;;;;;;6.87;5.47;;;;;;;17.57;100.00;96904.78;4999569;28;20314;-80
2022/06/17 04:51:36;;;;;;;8.27;5.67;;;;;;;17.62;100.00;96910.31;5004373;28;20337;-80
2022/06/17 04:54:11;;;;;;;7.43;5.50;;;;;;;17.69;100.00;96906.28;5004206;28;20206;-80
2022/06/17 04:57:02;;;;;;;7.00;5.50;;;;;;;17.78;100.00;96909.34;5015423;28;20218;-80
2022/06/17 04:59:45;;;;;;;7.87;5.53;;;;;;;17.76;100.00;96911.53;5018331;28;20227;-79
2022/06/17 05:02:15;;;;;;;7.60;6.10;;;;;;;17.78;100.00;96914.81;5009862;28;20265;-80
2022/06/17 05:04:57;;;;;;;9.50;6.00;;;;;;;17.81;100.00;96917.03;5004342;28;20285;-80
2022/06/17 05:07:25;;;;;;;10.00;5.80;;;;;;;17.90;100.00;96918.19;5000032;28;20229;-79
2022/06/17 05:09:57;;;;;;;8.77;6.33;;;;;;;17.96;100.00;96916.28;5003315;28;20218;-79
2022/06/17 05:12:28;;;;;;;6.97;6.00;;;;;;;18.06;100.00;96917.19;5010225;28;20199;-79
2022/06/17 05:15:01;;;;;;;8.77;6.17;;;;;;;18.04;100.00;96902.13;5002344;28;20207;-79
2022/06/17 05:17:28;;;;;;;7.40;5.90;;;;;;;18.02;100.00;96907.06;5009382;28;20224;-79
2022/06/17 05:19:55;;;;;;;7.97;6.07;;;;;;;18.03;100.00;96912.25;5015444;28;20234;-79
2022/06/17 05:22:30;;;;;;;6.60;5.50;;;;;;;18.12;100.00;96913.41;5013392;28;20211;-79
2022/06/17 05:24:59;;;;;;;12.17;5.57;;;;;;;18.22;100.00;96904.44;5019776;28;20219;-79
2022/06/17 05:27:27;;;;;;;12.70;6.07;;;;;;;18.24;100.00;96913.19;5011813;28;20230;-79
2022/06/17 05:29:55;;;;;;;7.23;5.77;;;;;;;18.21;100.00;96902.78;5010110;28;20226;-79
2022/06/17 05:32:23;;;;;;;11.57;6.40;;;;;;;18.32;100.00;96912.69;5008495;28;20289;-80
2022/06/17 05:34:51;;;;;;;7.50;5.80;;;;;;;18.34;100.00;96904.22;5002874;28;20203;-80
2022/06/17 05:37:18;;;;;;;8.03;5.97;;;;;;;18.32;100.00;96903.66;5001394;28;20622;-79
2022/06/17 05:39:47;;;;;;;7.40;5.80;;;;;;;18.38;100.00;96910.78;5010863;28;20214;-80
2022/06/17 05:42:16;;;;;;;7.60;6.30;;;;;;;18.39;100.00;96909.72;5010063;28;20214;-81
2022/06/17 05:44:47;;;;;;;7.77;5.77;;;;;;;18.44;100.00;96923.44;5009492;28;20248;-80
2022/06/17 05:47:49;;;;;;;7.67;5.30;;;;;;;18.54;100.00;96926.22;4940156;28;20292;-80
2022/06/17 05:50:32;;;;;;;10.40;5.87;;;;;;;18.56;100.00;96918.53;5000835;28;20230;-80
2022/06/17 05:53:34;;;;;;;8.20;5.83;;;;;;;18.51;100.00;96924.00;4943219;28;20236;-81
2022/06/17 05:56:17;;;;;;;8.13;5.73;;;;;;;18.58;100.00;96921.88;5001875;28;20223;-81
2022/06/17 05:58:45;;;;;;;8.53;5.53;;;;;;;18.71;100.00;96926.88;5012228;28;20210;-80
2022/06/17 06:01:14;;;;;;;6.83;5.77;;;;;;;18.74;100.00;96929.03;4998557;28;20210;-81
2022/06/17 06:03:42;;;;;;;7.13;5.67;;;;;;;18.85;100.00;96936.22;5007612;28;20257;-81
2022/06/17 06:06:09;;;;;;;11.75;5.93;;;;;;;18.95;100.00;96940.06;5007563;28;20302;-80
2022/06/17 06:08:36;;;;;;;7.53;5.90;;;;;;;19.04;100.00;96943.94;5013126;28;20215;-82
2022/06/17 06:11:04;;;;;;;6.07;5.13;;;;;;;19.13;100.00;96947.78;5004690;28;20203;-82
2022/06/17 06:13:36;;;;;;;6.97;5.57;;;;;;;19.15;100.00;96951.06;5006008;28;20231;-82
2022/06/17 06:16:03;;;;;;;6.32;5.30;;;;;;;19.24;100.00;96953.00;5007835;28;20223;-82
2022/06/17 06:18:36;;;;;;;6.97;5.30;;;;;;;19.34;100.00;96948.63;5010736;28;20213;-83
2022/06/17 06:21:24;;;;;;;7.88;5.82;;;;;;;19.44;100.00;96952.22;5021291;28;20236;-82
2022/06/17 06:23:55;;;;;;;10.43;5.55;;;;;;;19.51;100.00;96958.28;5004856;28;20291;-83
2022/06/17 06:26:27;;;;;;;8.10;5.43;;;;;;;19.57;100.00;96948.97;5016553;28;20257;-82
2022/06/17 06:29:26;;;;;;;8.05;5.82;;;;;;;19.66;100.00;96960.19;5010512;28;20230;-83
2022/06/17 06:31:56;;;;;;;11.27;5.97;;;;;;;19.71;100.00;96959.41;5005059;28;20207;-82
2022/06/17 06:34:31;;;;;;;8.20;5.43;;;;;;;19.67;100.00;96958.28;5013383;28;20246;-82
2022/06/17 06:36:58;;;;;;;9.60;5.80;;;;;;;19.74;100.00;96965.13;5009511;28;20215;-83
2022/06/17 06:39:26;;;;;;;7.32;5.47;;;;;;;19.78;100.00;96962.69;5005775;28;20317;-82
2022/06/17 06:41:57;;;;;;;8.35;5.60;;;;;;;19.81;100.00;96965.72;5004871;28;20229;-83
2022/06/17 06:44:24;;;;;;;7.95;5.80;;;;;;;19.87;100.00;96974.75;5002619;28;20216;-82
2022/06/17 06:47:07;;;;;;;6.45;5.72;;;;;;;19.88;100.00;96970.91;5022147;28;20195;-82
2022/06/17 06:49:54;;;;;;;6.90;5.72;;;;;;;19.75;100.00;96968.69;5001003;28;20238;-83
2022/06/17 06:52:25;;;;;;;10.05;6.13;;;;;;;19.76;100.00;96970.34;5003077;28;20199;-81
2022/06/17 06:54:52;;;;;;;7.95;6.07;;;;;;;19.72;100.00;96961.88;5005887;28;20202;-83
2022/06/17 06:57:20;;;;;;;10.70;5.95;;;;;;;19.77;100.00;96963.78;4999245;28;20233;-83
2022/06/17 06:59:47;;;;;;;6.85;5.93;;;;;;;19.75;100.00;96976.91;4998910;28;20327;-83
2022/06/17 07:02:14;;;;;;;7.45;5.85;;;;;;;19.57;100.00;96970.06;5003156;28;20266;-83
2022/06/17 07:04:42;;;;;;;7.35;6.22;;;;;;;19.52;100.00;96970.88;5021829;28;20207;-83
2022/06/17 07:07:11;;;;;;;10.60;6.38;;;;;;;19.56;100.00;96976.66;5017804;28;20237;-83
2022/06/17 07:09:39;;;;;;;8.57;6.15;;;;;;;19.58;100.00;96977.19;5007646;28;20277;-83
2022/06/17 07:12:07;;;;;;;8.27;6.05;;;;;;;19.48;100.00;96972.50;5008288;28;20290;-82
2022/06/17 07:14:34;;;;;;;8.70;6.30;;;;;;;19.48;100.00;96968.97;5007301;28;20309;-84
2022/06/17 07:17:01;;;;;;;7.05;6.03;;;;;;;19.71;100.00;96967.63;5016974;28;20317;-84
2022/06/17 07:19:28;;;;;;;8.52;5.97;;;;;;;20.04;100.00;96964.31;5018294;28;20201;-83
2022/06/17 07:21:55;;;;;;;5.97;5.38;;;;;;;20.35;100.00;96965.94;5004269;28;20239;-83
2022/06/17 07:24:23;;;;;;;7.28;5.65;;;;;;;20.65;100.00;96961.50;5012001;28;20206;-83
2022/06/17 07:26:51;;;;;;;10.77;5.55;;;;;;;20.93;100.00;96951.75;5003436;28;20210;-83
2022/06/17 07:29:18;;;;;;;7.53;5.57;;;;;;;21.26;100.00;96964.00;4995971;28;20262;-83
2022/06/17 07:31:45;;;;;;;6.88;6.18;;;;;;;21.49;100.00;96963.31;5019868;28;20302;-84
2022/06/17 07:34:12;;;;;;;7.15;5.88;;;;;;;21.73;100.00;96966.16;5006252;28;20222;-83
2022/06/17 07:42:12;;;;;;;7.82;5.70;;;;;;;22.22;94.37;96966.03;5016276;28;20215;-83
2022/06/17 07:44:38;;;;;;;6.88;5.90;;;;;;;22.39;87.89;96966.41;5011190;28;20207;-83
2022/06/17 07:47:07;;;;;;;9.82;5.60;;;;;;;22.86;89.03;96962.09;5011613;28;20215;-83
2022/06/17 07:49:34;;;;;;;12.43;6.28;;;;;;;23.21;80.75;96956.13;5009386;28;20246;-83
2022/06/17 07:52:01;;;;;;;10.13;5.78;;;;;;;23.33;80.32;96953.75;5008958;28;20214;-83
2022/06/17 07:54:29;;;;;;;8.57;5.90;;;;;;;23.55;77.46;96942.16;5021065;28;20198;-83
2022/06/17 07:56:56;;;;;;;13.73;5.90;;;;;;;23.62;76.78;96947.28;5026002;28;20199;-83
2022/06/17 07:59:23;;;;;;;10.80;6.10;;;;;;;23.67;79.17;96942.50;5021345;28;20219;-83
2022/06/17 08:01:51;;;;;;;9.35;6.15;;;;;;;23.78;75.53;96948.69;5031768;28;20225;-83
2022/06/17 08:04:18;;;;;;;7.90;5.35;;;;;;;24.05;74.79;96950.72;5026235;28;20298;-83
2022/06/17 08:06:49;;;;;;;8.63;6.05;;;;;;;23.99;74.17;96949.97;5014758;28;20207;-83
2022/06/17 08:09:17;;;;;;;11.35;5.72;;;;;;;24.22;76.78;96939.16;5000270;28;20219;-83
2022/06/17 08:11:46;;;;;;;11.48;5.57;;;;;;;24.57;73.95;96948.72;5022034;28;20207;-83
2022/06/17 08:14:13;;;;;;;6.55;5.28;;;;;;;24.97;72.94;96956.22;5020197;28;20317;-83
2022/06/17 08:16:41;;;;;;;7.13;5.68;;;;;;;25.07;68.43;96946.91;5013531;28;20228;-84
2022/06/17 08:19:09;;;;;;;6.93;5.57;;;;;;;24.98;71.05;96948.75;5014077;28;20211;-83
2022/06/17 08:21:36;;;;;;;10.43;5.88;;;;;;;24.62;74.00;96952.19;5017548;28;20198;-83
2022/06/17 08:24:04;;;;;;;7.85;5.90;;;;;;;24.70;72.32;96943.19;5007377;28;20293;-83
2022/06/17 08:26:31;;;;;;;8.73;5.63;;;;;;;24.79;72.12;96944.13;5014956;28;20209;-83
2022/06/17 08:28:59;;;;;;;10.15;6.30;;;;;;;24.78;74.58;96933.38;5009865;28;20203;-83
2022/06/17 08:31:27;;;;;;;7.32;5.90;;;;;;;24.81;74.76;96930.00;5009460;28;20215;-83
2022/06/17 08:33:54;;;;;;;6.50;5.50;;;;;;;24.98;77.71;96943.22;5015887;28;20230;-84
2022/06/17 08:36:24;;;;;;;8.75;6.03;;;;;;;25.02;77.45;96947.00;5007222;28;20209;-83
2022/06/17 08:38:55;;;;;;;7.07;5.47;;;;;;;25.04;78.42;96936.47;5010307;28;20212;-83
2022/06/17 08:41:27;;;;;;;7.57;6.05;;;;;;;25.19;75.44;96941.66;5027574;28;20207;-83
2022/06/17 08:44:28;;;;;;;8.80;6.65;;;;;;;25.28;74.01;96945.34;5005677;28;20241;-83
2022/06/17 08:47:11;;;;;;;8.20;6.35;;;;;;;25.52;72.23;96943.13;5012592;28;20213;-83
2022/06/17 08:50:00;;;;;;;9.68;6.28;;;;;;;25.71;72.10;96934.69;5010614;28;20241;-83
2022/06/17 08:52:45;;;;;;;9.75;6.43;;;;;;;25.63;69.46;96938.22;5026845;28;20235;-83
2022/06/17 08:55:21;;;;;;;11.07;5.75;;;;;;;25.79;70.17;96927.59;5025226;28;20274;-83
2022/06/17 08:58:00;;;;;;;7.55;5.45;;;;;;;26.05;66.76;96923.06;5029328;28;20218;-83
2022/06/17 09:00:37;;;;;;;7.57;5.80;;;;;;;26.15;64.82;96911.72;5008784;28;20203;-83
2022/06/17 09:03:24;;;;;;;8.73;5.88;;;;;;;26.20;64.83;96927.41;5011459;28;20211;-81
2022/06/17 09:06:08;;;;;;;9.02;6.35;;;;;;;26.13;64.96;96911.22;5010310;28;20337;-83
2022/06/17 09:08:54;;;;;;;6.18;5.57;;;;;;;26.13;63.35;96908.47;4997298;28;20194;-80
2022/06/17 09:11:25;;;;;;;6.55;5.85;;;;;;;26.10;65.40;96908.28;5002243;28;20235;-83
2022/06/17 09:14:27;;;;;;;7.20;5.47;;;;;;;26.29;64.35;96901.41;5008234;28;20211;-81
2022/06/17 09:17:04;;;;;;;8.10;5.80;;;;;;;26.46;66.37;96894.31;5010563;28;20235;-82
2022/06/17 09:19:35;;;;;;;8.00;5.90;;;;;;;26.53;66.20;96897.47;4997736;28;20218;-85
2022/06/17 09:22:09;;;;;;;6.78;5.80;;;;;;;26.34;65.51;96898.53;5004336;28;20257;-84
2022/06/17 09:24:40;;;;;;;7.72;6.18;;;;;;;26.33;65.75;96896.88;5010989;28;20209;-83
2022/06/17 09:27:12;;;;;;;5.80;5.30;;;;;;;26.34;65.32;96890.22;5008323;28;20275;-84
2022/06/17 09:29:45;;;;;;;7.70;6.07;;;;;;;26.41;65.38;96880.63;5008712;28;20203;-85
2022/06/17 09:32:19;;;;;;;7.50;6.28;;;;;;;26.50;64.60;96885.06;5009340;28;20272;-84
2022/06/17 09:34:54;;;;;;;6.93;5.70;;;;;;;26.66;65.92;96891.81;5003411;28;20298;-84
2022/06/17 09:37:28;;;;;;;9.02;6.10;;;;;;;26.79;66.10;96887.31;5003146;28;20210;-81
2022/06/17 09:40:01;;;;;;;6.50;5.82;;;;;;;26.90;64.88;96894.16;5008422;28;20208;-82
2022/06/17 09:42:34;;;;;;;9.15;6.00;;;;;;;26.89;65.19;96888.94;5009424;28;20256;-81
2022/06/17 09:45:10;;;;;;;7.45;5.50;;;;;;;26.94;64.49;96897.97;5019476;28;20298;-84
2022/06/17 09:47:45;;;;;;;8.40;5.97;;;;;;;27.08;66.00;96904.19;5013524;28;20203;-84
2022/06/17 09:50:17;;;;;;;9.98;6.07;;;;;;;27.02;64.61;96890.81;4998961;28;20207;-83
2022/06/17 09:52:52;;;;;;;9.48;6.30;;;;;;;27.02;65.91;96891.63;5002998;28;20275;-84
2022/06/17 09:55:24;;;;;;;9.27;5.90;;;;;;;27.07;65.76;96888.69;5026572;28;20206;-84
2022/06/17 09:57:56;;;;;;;9.27;6.18;;;;;;;27.17;64.88;96882.03;5021658;28;20257;-83
2022/06/17 10:00:26;;;;;;;8.32;6.15;;;;;;;27.20;63.71;96892.47;5008613;28;20283;-84
2022/06/17 10:03:13;;;;;;;11.20;6.32;;;;;;;27.10;64.89;96890.00;5014960;28;20215;-84
2022/06/17 10:05:47;;;;;;;7.18;5.75;;;;;;;27.10;63.59;96881.69;5004733;28;20219;-84
2022/06/17 10:08:24;;;;;;;8.63;6.10;;;;;;;27.23;64.71;96889.03;5006272;28;20210;-82
2022/06/17 10:10:57;;;;;;;6.65;6.05;;;;;;;27.31;62.66;96884.66;5002609;28;20385;-82
2022/06/17 10:13:36;;;;;;;9.88;6.18;;;;;;;27.40;64.74;96879.91;5010538;28;20276;-82
2022/06/17 10:19:07;;;;;;;10.82;6.50;;;;;;;27.30;64.32;96875.53;5008276;28;20199;-82
2022/06/17 10:21:53;;;;;;;7.50;6.50;;;;;;;27.30;65.76;96874.72;5014249;28;20234;-83
2022/06/17 10:24:31;;;;;;;9.85;5.90;;;;;;;27.31;64.70;96879.09;5011727;28;20306;-83
2022/06/17 10:27:13;;;;;;;6.97;5.70;;;;;;;27.37;65.33;96872.28;4999343;28;20203;-83
2022/06/17 10:29:58;;;;;;;8.88;6.07;;;;;;;27.55;63.81;96867.56;4999787;28;20203;-82
2022/06/17 10:32:27;;;;;;;7.25;5.85;;;;;;;27.61;60.38;96857.94;4999322;28;20310;-82
2022/06/17 10:34:59;;;;;;;6.95;5.68;;;;;;;27.59;59.53;96871.31;5024210;28;20221;-83
2022/06/17 10:37:28;;;;;;;7.43;5.60;;;;;;;27.60;59.12;96868.22;5019600;28;20261;-82
2022/06/17 10:39:56;;;;;;;8.82;6.10;;;;;;;27.67;59.27;96863.00;5009234;28;20196;-82
2022/06/17 10:42:26;;;;;;;8.00;5.50;;;;;;;27.79;61.08;96862.34;5000252;28;20281;-83
2022/06/17 10:44:59;;;;;;;8.50;6.05;;;;;;;27.96;59.21;96864.25;5011611;28;20215;-83
2022/06/17 10:47:35;;;;;;;7.20;5.72;;;;;;;28.02;59.41;96857.38;4998395;28;20306;-82
2022/06/17 10:50:11;;;;;;;7.72;5.85;;;;;;;28.15;59.96;96853.59;5009572;28;20240;-82
2022/06/17 10:52:43;;;;;;;9.43;6.55;;;;;;;28.16;59.39;96846.91;5009493;28;20325;-81
2022/06/17 10:55:21;;;;;;;6.57;5.57;;;;;;;28.31;58.06;96848.34;4994434;28;20238;-84
2022/06/17 10:58:16;;;;;;;9.45;5.70;;;;;;;28.39;58.18;96856.66;4999552;28;20307;-81
2022/06/17 11:00:58;;;;;;;9.00;6.05;;;;;;;28.43;56.08;96848.44;5007808;28;20273;-81
2022/06/17 11:03:28;;;;;;;8.88;6.30;;;;;;;28.41;55.87;96845.22;4997930;28;20304;-81
2022/06/17 11:06:00;;;;;;;6.60;5.47;;;;;;;28.27;54.62;96850.16;5022049;28;20202;-81
2022/06/17 11:08:34;;;;;;;6.10;5.50;;;;;;;28.28;55.11;96838.72;5018721;28;20210;-81
2022/06/17 11:13:51;;;;;;;9.00;5.57;;;;;;;28.77;54.58;96844.72;5022834;28;20502;-81
2022/06/17 11:16:21;;;;;;;9.35;5.78;;;;;;;28.73;54.61;96840.97;5010313;28;20211;-82
2022/06/17 11:19:02;;;;;;;6.95;5.55;;;;;;;28.71;56.11;96838.53;5010359;28;20601;-82
2022/06/17 11:21:36;;;;;;;11.57;5.57;;;;;;;28.73;54.68;96829.84;5010646;28;20215;-82
2022/06/17 11:24:06;;;;;;;10.48;5.38;;;;;;;28.72;53.37;96831.81;5002653;28;20199;-81
2022/06/17 11:26:35;;;;;;;12.50;5.30;;;;;;;28.76;51.83;96830.00;5014771;28;20217;-82
2022/06/17 11:29:06;;;;;;;6.32;5.18;;;;;;;28.90;53.25;96832.56;5027934;28;20214;-81
2022/06/17 11:31:39;;;;;;;5.75;5.25;;;;;;;28.92;52.98;96833.06;5021286;28;20227;-81
2022/06/17 11:34:16;;;;;;;5.30;4.80;;;;;;;28.95;50.79;96829.56;5011798;28;20211;-81
2022/06/17 11:37:12;;;;;;;8.90;5.50;;;;;;;29.10;50.75;96820.63;5013604;28;20210;-82
2022/06/17 11:39:39;;;;;;;10.60;4.88;;;;;;;29.27;49.68;96823.28;5010803;28;20215;-82
2022/06/17 11:42:16;;;;;;;7.13;5.10;;;;;;;29.41;50.83;96819.47;5014295;28;20202;-82
2022/06/17 11:44:54;;;;;;;7.25;5.20;;;;;;;29.41;49.44;96816.69;5019956;28;20203;-81
2022/06/17 11:47:24;;;;;;;6.32;4.80;;;;;;;29.41;49.03;96816.69;4995899;28;20211;-81
2022/06/17 11:49:53;;;;;;;9.13;5.40;;;;;;;29.33;49.22;96808.03;5012816;28;20276;-81
2022/06/17 11:52:29;;;;;;;8.15;5.10;;;;;;;29.56;46.67;96816.03;5012354;28;20234;-81
2022/06/17 11:54:57;;;;;;;6.28;4.68;;;;;;;29.65;47.84;96808.44;5009678;28;20294;-81
2022/06/17 11:57:27;;;;;;;5.72;4.68;;;;;;;29.73;49.65;96807.53;5000481;28;20214;-81
2022/06/17 11:59:56;;;;;;;7.53;4.90;;;;;;;29.64;46.35;96810.41;4998683;28;20203;-82
2022/06/17 12:02:23;;;;;;;6.00;4.90;;;;;;;29.77;48.51;96802.09;5001703;28;20400;-82
2022/06/17 12:04:54;;;;;;;9.57;5.15;;;;;;;29.94;48.02;96793.59;4997330;28;20230;-81